sensor_id;sensor_type;location;lat;lon;timestamp;pressure;altitude;pressure_sealevel;temperature;humidity
85918;BME280;76456;49.310;8.632;2024-02-26T00:01:08;98614.75;;;8.00;60.90
85918;BME280;76456;49.310;8.632;2024-02-26T00:03:34;98624.88;;;8.01;60.80
85918;BME280;76456;49.310;8.632;2024-02-26T00:06:01;98621.34;;;8.02;60.67
85918;BME280;76456;49.310;8.632;2024-02-26T00:08:27;98615.56;;;8.00;60.85
85918;BME280;76456;49.310;8.632;2024-02-26T00:10:53;98614.19;;;7.96;61.38
85918;BME280;76456;49.310;8.632;2024-02-26T00:13:18;98633.13;;;8.05;61.35
85918;BME280;76456;49.310;8.632;2024-02-26T00:15:45;98613.94;;;7.99;60.64
85918;BME280;76456;49.310;8.632;2024-02-26T00:18:10;98632.59;;;8.01;61.79
85918;BME280;76456;49.310;8.632;2024-02-26T00:20:36;98634.75;;;7.96;61.61
85918;BME280;76456;49.310;8.632;2024-02-26T00:23:01;98635.69;;;7.95;61.40
85918;BME280;76456;49.310;8.632;2024-02-26T00:25:27;98630.16;;;7.90;61.14
85918;BME280;76456;49.310;8.632;2024-02-26T00:27:52;98641.78;;;8.04;61.47
85918;BME280;76456;49.310;8.632;2024-02-26T00:30:17;98662.09;;;8.07;61.11
85918;BME280;76456;49.310;8.632;2024-02-26T00:32:42;98651.53;;;8.00;60.61
85918;BME280;76456;49.310;8.632;2024-02-26T00:35:08;98647.19;;;7.91;61.20
85918;BME280;76456;49.310;8.632;2024-02-26T00:37:34;98653.16;;;7.92;61.55
85918;BME280;76456;49.310;8.632;2024-02-26T00:40:00;98654.38;;;7.88;61.80
85918;BME280;76456;49.310;8.632;2024-02-26T00:42:25;98646.78;;;7.86;61.25
85918;BME280;76456;49.310;8.632;2024-02-26T00:44:51;98651.25;;;7.84;61.92
85918;BME280;76456;49.310;8.632;2024-02-26T00:47:16;98633.38;;;7.73;62.19
85918;BME280;76456;49.310;8.632;2024-02-26T00:49:41;98654.22;;;7.79;62.57
85918;BME280;76456;49.310;8.632;2024-02-26T00:52:07;98647.63;;;7.77;62.24
85918;BME280;76456;49.310;8.632;2024-02-26T00:54:32;98650.72;;;7.80;61.98
85918;BME280;76456;49.310;8.632;2024-02-26T00:56:57;98661.81;;;7.81;63.22
85918;BME280;76456;49.310;8.632;2024-02-26T00:59:23;98670.03;;;7.75;62.75
85918;BME280;76456;49.310;8.632;2024-02-26T01:01:48;98672.63;;;7.75;64.09
85918;BME280;76456;49.310;8.632;2024-02-26T01:04:13;98672.88;;;7.72;63.11
85918;BME280;76456;49.310;8.632;2024-02-26T01:06:39;98655.00;;;7.61;63.82
85918;BME280;76456;49.310;8.632;2024-02-26T01:09:04;98668.53;;;7.63;63.71
85918;BME280;76456;49.310;8.632;2024-02-26T01:11:29;98675.84;;;7.67;63.45
85918;BME280;76456;49.310;8.632;2024-02-26T01:13:55;98643.09;;;7.50;64.05
85918;BME280;76456;49.310;8.632;2024-02-26T01:16:22;98682.88;;;7.65;63.76
85918;BME280;76456;49.310;8.632;2024-02-26T01:18:48;98678.81;;;7.63;64.23
85918;BME280;76456;49.310;8.632;2024-02-26T01:21:13;98685.97;;;7.59;64.24
85918;BME280;76456;49.310;8.632;2024-02-26T01:23:38;98669.19;;;7.46;64.85
85918;BME280;76456;49.310;8.632;2024-02-26T01:26:04;98694.06;;;7.55;64.84
85918;BME280;76456;49.310;8.632;2024-02-26T01:28:30;98696.63;;;7.55;64.76
85918;BME280;76456;49.310;8.632;2024-02-26T01:30:55;98679.44;;;7.46;64.54
85918;BME280;76456;49.310;8.632;2024-02-26T01:33:20;98701.41;;;7.59;64.76
85918;BME280;76456;49.310;8.632;2024-02-26T01:35:46;98673.09;;;7.50;64.53
85918;BME280;76456;49.310;8.632;2024-02-26T01:38:12;98698.25;;;7.56;64.60
85918;BME280;76456;49.310;8.632;2024-02-26T01:40:37;98678.22;;;7.40;65.82
85918;BME280;76456;49.310;8.632;2024-02-26T01:43:02;98689.97;;;7.43;67.12
85918;BME280;76456;49.310;8.632;2024-02-26T01:45:28;98673.41;;;7.16;69.92
85918;BME280;76456;49.310;8.632;2024-02-26T01:47:54;98687.47;;;7.12;69.79
85918;BME280;76456;49.310;8.632;2024-02-26T01:50:20;98692.00;;;7.09;70.44
85918;BME280;76456;49.310;8.632;2024-02-26T01:52:47;98694.84;;;7.06;71.14
85918;BME280;76456;49.310;8.632;2024-02-26T01:55:14;98689.00;;;6.94;70.80
85918;BME280;76456;49.310;8.632;2024-02-26T01:57:42;98702.91;;;7.01;71.45
85918;BME280;76456;49.310;8.632;2024-02-26T02:00:09;98700.22;;;7.03;70.78
85918;BME280;76456;49.310;8.632;2024-02-26T02:02:35;98688.22;;;7.03;70.56
85918;BME280;76456;49.310;8.632;2024-02-26T02:05:01;98686.66;;;6.91;70.22
85918;BME280;76456;49.310;8.632;2024-02-26T02:07:27;98701.16;;;7.02;71.63
85918;BME280;76456;49.310;8.632;2024-02-26T02:09:53;98708.31;;;6.98;72.11
85918;BME280;76456;49.310;8.632;2024-02-26T02:12:19;98691.56;;;6.94;70.82
85918;BME280;76456;49.310;8.632;2024-02-26T02:14:44;98701.97;;;7.02;71.69
85918;BME280;76456;49.310;8.632;2024-02-26T02:17:10;98680.19;;;6.87;72.07
85918;BME280;76456;49.310;8.632;2024-02-26T02:19:35;98703.88;;;7.00;71.45
85918;BME280;76456;49.310;8.632;2024-02-26T02:22:00;98687.59;;;6.90;72.22
85918;BME280;76456;49.310;8.632;2024-02-26T02:24:26;98691.25;;;6.87;72.37
85918;BME280;76456;49.310;8.632;2024-02-26T02:26:51;98712.75;;;6.96;73.65
85918;BME280;76456;49.310;8.632;2024-02-26T02:29:17;98709.09;;;6.89;72.29
85918;BME280;76456;49.310;8.632;2024-02-26T02:31:42;98714.66;;;6.94;72.48
85918;BME280;76456;49.310;8.632;2024-02-26T02:34:09;98715.59;;;6.93;72.85
85918;BME280;76456;49.310;8.632;2024-02-26T02:36:34;98708.09;;;6.80;72.87
85918;BME280;76456;49.310;8.632;2024-02-26T02:38:59;98700.13;;;6.83;73.89
85918;BME280;76456;49.310;8.632;2024-02-26T02:41:25;98705.84;;;6.87;72.77
85918;BME280;76456;49.310;8.632;2024-02-26T02:43:51;98696.63;;;6.84;73.81
85918;BME280;76456;49.310;8.632;2024-02-26T02:46:17;98700.56;;;6.88;73.56
85918;BME280;76456;49.310;8.632;2024-02-26T02:48:42;98692.00;;;6.78;73.65
85918;BME280;76456;49.310;8.632;2024-02-26T02:51:09;98679.69;;;6.72;73.62
85918;BME280;76456;49.310;8.632;2024-02-26T02:53:34;98701.41;;;6.89;74.20
85918;BME280;76456;49.310;8.632;2024-02-26T02:55:59;98687.44;;;6.82;73.52
85918;BME280;76456;49.310;8.632;2024-02-26T02:58:25;98703.81;;;6.90;73.33
85918;BME280;76456;49.310;8.632;2024-02-26T03:00:50;98698.31;;;6.95;72.55
85918;BME280;76456;49.310;8.632;2024-02-26T03:03:15;98702.38;;;6.97;73.44
85918;BME280;76456;49.310;8.632;2024-02-26T03:05:41;98714.16;;;7.00;73.93
85918;BME280;76456;49.310;8.632;2024-02-26T03:08:06;98689.00;;;6.94;73.84
85918;BME280;76456;49.310;8.632;2024-02-26T03:10:32;98704.44;;;7.04;73.55
85918;BME280;76456;49.310;8.632;2024-02-26T03:12:57;98693.63;;;7.00;73.84
85918;BME280;76456;49.310;8.632;2024-02-26T03:15:22;98691.72;;;7.02;74.52
85918;BME280;76456;49.310;8.632;2024-02-26T03:17:48;98716.50;;;7.13;74.45
85918;BME280;76456;49.310;8.632;2024-02-26T03:20:13;98686.13;;;6.87;74.74
85918;BME280;76456;49.310;8.632;2024-02-26T03:22:39;98725.88;;;7.03;75.97
85918;BME280;76456;49.310;8.632;2024-02-26T03:25:05;98703.25;;;6.87;77.28
85918;BME280;76456;49.310;8.632;2024-02-26T03:27:31;98715.66;;;6.82;77.80
85918;BME280;76456;49.310;8.632;2024-02-26T03:29:56;98718.34;;;6.80;78.16
85918;BME280;76456;49.310;8.632;2024-02-26T03:32:22;98725.94;;;6.82;79.68
85918;BME280;76456;49.310;8.632;2024-02-26T03:34:47;98718.53;;;6.68;80.16
85918;BME280;76456;49.310;8.632;2024-02-26T03:37:12;98685.75;;;6.50;79.88
85918;BME280;76456;49.310;8.632;2024-02-26T03:39:38;98706.09;;;6.63;80.52
85918;BME280;76456;49.310;8.632;2024-02-26T03:42:04;98708.78;;;6.62;81.72
85918;BME280;76456;49.310;8.632;2024-02-26T03:44:29;98685.75;;;6.50;81.63
85918;BME280;76456;49.310;8.632;2024-02-26T03:46:54;98683.47;;;6.47;82.62
85918;BME280;76456;49.310;8.632;2024-02-26T03:49:20;98698.91;;;6.57;82.92
85918;BME280;76456;49.310;8.632;2024-02-26T03:51:46;98682.75;;;6.45;82.86
85918;BME280;76456;49.310;8.632;2024-02-26T03:54:12;98696.44;;;6.55;82.98
85918;BME280;76456;49.310;8.632;2024-02-26T03:56:37;98707.41;;;6.57;83.16
85918;BME280;76456;49.310;8.632;2024-02-26T03:59:02;98689.56;;;6.56;83.16
85918;BME280;76456;49.310;8.632;2024-02-26T04:01:28;98685.66;;;6.52;83.86
85918;BME280;76456;49.310;8.632;2024-02-26T04:03:54;98674.38;;;6.43;84.24
85918;BME280;76456;49.310;8.632;2024-02-26T04:06:19;98684.94;;;6.50;83.94
85918;BME280;76456;49.310;8.632;2024-02-26T04:08:46;98679.94;;;6.48;83.69
85918;BME280;76456;49.310;8.632;2024-02-26T04:11:12;98678.34;;;6.47;83.49
85918;BME280;76456;49.310;8.632;2024-02-26T04:13:37;98672.50;;;6.45;83.65
85918;BME280;76456;49.310;8.632;2024-02-26T04:16:04;98673.31;;;6.46;83.47
85918;BME280;76456;49.310;8.632;2024-02-26T04:18:30;98664.44;;;6.50;82.26
85918;BME280;76456;49.310;8.632;2024-02-26T04:20:55;98644.31;;;6.45;81.98
85918;BME280;76456;49.310;8.632;2024-02-26T04:23:22;98643.38;;;6.46;82.58
85918;BME280;76456;49.310;8.632;2024-02-26T04:25:47;98658.38;;;6.51;82.04
85918;BME280;76456;49.310;8.632;2024-02-26T04:28:13;98654.88;;;6.52;82.43
85918;BME280;76456;49.310;8.632;2024-02-26T04:30:38;98661.75;;;6.51;82.82
85918;BME280;76456;49.310;8.632;2024-02-26T04:33:04;98636.84;;;6.42;82.29
85918;BME280;76456;49.310;8.632;2024-02-26T04:35:29;98655.38;;;6.46;82.17
85918;BME280;76456;49.310;8.632;2024-02-26T04:37:55;98632.75;;;6.30;82.24
85918;BME280;76456;49.310;8.632;2024-02-26T04:40:20;98652.06;;;6.34;83.19
85918;BME280;76456;49.310;8.632;2024-02-26T04:42:46;98656.50;;;6.32;83.17
85918;BME280;76456;49.310;8.632;2024-02-26T04:45:11;98651.63;;;6.29;83.23
85918;BME280;76456;49.310;8.632;2024-02-26T04:47:36;98626.06;;;6.18;83.55
85918;BME280;76456;49.310;8.632;2024-02-26T04:50:02;98644.50;;;6.33;83.34
85918;BME280;76456;49.310;8.632;2024-02-26T04:52:27;98643.00;;;6.30;83.77
85918;BME280;76456;49.310;8.632;2024-02-26T04:54:53;98650.69;;;6.30;82.90
85918;BME280;76456;49.310;8.632;2024-02-26T04:57:18;98637.19;;;6.28;83.08
85918;BME280;76456;49.310;8.632;2024-02-26T04:59:44;98647.59;;;6.36;83.18
85918;BME280;76456;49.310;8.632;2024-02-26T05:02:11;98642.31;;;6.28;83.38
85918;BME280;76456;49.310;8.632;2024-02-26T05:04:36;98647.44;;;6.28;82.80
85918;BME280;76456;49.310;8.632;2024-02-26T05:07:01;98647.94;;;6.22;83.94
85918;BME280;76456;49.310;8.632;2024-02-26T05:09:27;98657.91;;;6.25;83.64
85918;BME280;76456;49.310;8.632;2024-02-26T05:11:52;98657.56;;;6.30;83.58
85918;BME280;76456;49.310;8.632;2024-02-26T05:14:18;98665.50;;;6.27;84.20
85918;BME280;76456;49.310;8.632;2024-02-26T05:16:43;98655.56;;;6.12;84.71
85918;BME280;76456;49.310;8.632;2024-02-26T05:19:08;98664.25;;;6.21;85.04
85918;BME280;76456;49.310;8.632;2024-02-26T05:21:33;98658.78;;;6.14;84.48
85918;BME280;76456;49.310;8.632;2024-02-26T05:23:59;98646.25;;;6.11;84.99
85918;BME280;76456;49.310;8.632;2024-02-26T05:26:25;98659.38;;;6.18;84.85
85918;BME280;76456;49.310;8.632;2024-02-26T05:28:50;98660.00;;;6.10;85.03
85918;BME280;76456;49.310;8.632;2024-02-26T05:31:16;98658.69;;;6.16;85.47
85918;BME280;76456;49.310;8.632;2024-02-26T05:33:43;98652.84;;;6.14;84.79
85918;BME280;76456;49.310;8.632;2024-02-26T05:36:08;98652.19;;;6.12;84.77
85918;BME280;76456;49.310;8.632;2024-02-26T05:38:33;98663.53;;;6.19;84.76
85918;BME280;76456;49.310;8.632;2024-02-26T05:40:59;98666.81;;;6.21;84.60
85918;BME280;76456;49.310;8.632;2024-02-26T05:43:28;98672.03;;;6.20;84.95
85918;BME280;76456;49.310;8.632;2024-02-26T05:45:53;98676.28;;;6.09;85.04
85918;BME280;76456;49.310;8.632;2024-02-26T05:48:19;98688.72;;;6.14;85.66
85918;BME280;76456;49.310;8.632;2024-02-26T05:50:46;98666.91;;;5.99;85.83
85918;BME280;76456;49.310;8.632;2024-02-26T05:53:11;98678.53;;;6.03;84.66
85918;BME280;76456;49.310;8.632;2024-02-26T05:55:36;98699.13;;;6.12;86.15
85918;BME280;76456;49.310;8.632;2024-02-26T05:58:02;98706.81;;;6.12;85.58
85918;BME280;76456;49.310;8.632;2024-02-26T06:00:28;98707.84;;;6.10;86.33
85918;BME280;76456;49.310;8.632;2024-02-26T06:02:53;98711.78;;;6.14;85.40
85918;BME280;76456;49.310;8.632;2024-02-26T06:05:19;98700.66;;;6.04;85.14
85918;BME280;76456;49.310;8.632;2024-02-26T06:07:44;98707.09;;;5.98;85.64
85918;BME280;76456;49.310;8.632;2024-02-26T06:10:10;98709.66;;;5.98;85.89
85918;BME280;76456;49.310;8.632;2024-02-26T06:12:36;98731.03;;;6.08;86.35
85918;BME280;76456;49.310;8.632;2024-02-26T06:15:01;98718.50;;;5.94;86.74
85918;BME280;76456;49.310;8.632;2024-02-26T06:17:26;98747.81;;;6.01;87.64
85918;BME280;76456;49.310;8.632;2024-02-26T06:19:52;98761.91;;;5.96;87.72
85918;BME280;76456;49.310;8.632;2024-02-26T06:22:18;98749.81;;;5.87;87.58
85918;BME280;76456;49.310;8.632;2024-02-26T06:24:43;98758.25;;;5.89;88.62
85918;BME280;76456;49.310;8.632;2024-02-26T06:27:08;98741.91;;;5.78;88.17
85918;BME280;76456;49.310;8.632;2024-02-26T06:29:34;98761.72;;;5.88;89.12
85918;BME280;76456;49.310;8.632;2024-02-26T06:31:59;98759.84;;;5.90;88.92
85918;BME280;76456;49.310;8.632;2024-02-26T06:34:24;98760.44;;;5.82;88.95
85918;BME280;76456;49.310;8.632;2024-02-26T06:36:50;98742.97;;;5.76;88.99
85918;BME280;76456;49.310;8.632;2024-02-26T06:39:15;98767.53;;;5.90;89.04
85918;BME280;76456;49.310;8.632;2024-02-26T06:41:41;98755.78;;;5.87;89.90
85918;BME280;76456;49.310;8.632;2024-02-26T06:44:06;98754.84;;;5.88;88.11
85918;BME280;76456;49.310;8.632;2024-02-26T06:46:32;98759.72;;;5.91;88.51
85918;BME280;76456;49.310;8.632;2024-02-26T06:48:57;98768.56;;;5.98;88.15
85918;BME280;76456;49.310;8.632;2024-02-26T06:51:22;98771.84;;;6.00;88.67
85918;BME280;76456;49.310;8.632;2024-02-26T06:53:49;98767.50;;;6.01;88.52
85918;BME280;76456;49.310;8.632;2024-02-26T06:56:15;98783.69;;;6.12;88.76
85918;BME280;76456;49.310;8.632;2024-02-26T06:58:40;98779.00;;;6.18;87.93
85918;BME280;76456;49.310;8.632;2024-02-26T07:01:05;98784.69;;;6.21;87.76
85918;BME280;76456;49.310;8.632;2024-02-26T07:03:33;98781.75;;;6.26;87.92
85918;BME280;76456;49.310;8.632;2024-02-26T07:05:58;98788.03;;;6.33;87.03
85918;BME280;76456;49.310;8.632;2024-02-26T07:08:24;98789.91;;;6.31;87.41
85918;BME280;76456;49.310;8.632;2024-02-26T07:10:49;98778.88;;;6.30;87.91
85918;BME280;76456;49.310;8.632;2024-02-26T07:13:14;98784.56;;;6.34;86.62
85918;BME280;76456;49.310;8.632;2024-02-26T07:15:39;98791.16;;;6.36;87.84
85918;BME280;76456;49.310;8.632;2024-02-26T07:18:05;98804.69;;;6.38;86.73
85918;BME280;76456;49.310;8.632;2024-02-26T07:20:30;98803.06;;;6.37;87.46
85918;BME280;76456;49.310;8.632;2024-02-26T07:22:56;98771.19;;;6.19;87.23
85918;BME280;76456;49.310;8.632;2024-02-26T07:25:22;98775.38;;;6.20;87.43
85918;BME280;76456;49.310;8.632;2024-02-26T07:27:47;98809.91;;;6.37;87.87
85918;BME280;76456;49.310;8.632;2024-02-26T07:30:12;98812.38;;;6.38;86.89
85918;BME280;76456;49.310;8.632;2024-02-26T07:32:38;98810.50;;;6.40;86.53
85918;BME280;76456;49.310;8.632;2024-02-26T07:35:04;98794.47;;;6.27;87.14
85918;BME280;76456;49.310;8.632;2024-02-26T07:37:30;98807.34;;;6.37;88.09
85918;BME280;76456;49.310;8.632;2024-02-26T07:39:55;98808.88;;;6.39;86.15
85918;BME280;76456;49.310;8.632;2024-02-26T07:42:21;98805.50;;;6.39;87.08
85918;BME280;76456;49.310;8.632;2024-02-26T07:44:46;98809.31;;;6.44;86.98
85918;BME280;76456;49.310;8.632;2024-02-26T07:47:11;98815.66;;;6.40;86.03
85918;BME280;76456;49.310;8.632;2024-02-26T07:49:37;98807.84;;;6.42;86.50
85918;BME280;76456;49.310;8.632;2024-02-26T07:52:02;98815.53;;;6.42;86.92
85918;BME280;76456;49.310;8.632;2024-02-26T07:54:28;98789.13;;;6.30;86.42
85918;BME280;76456;49.310;8.632;2024-02-26T07:56:53;98788.53;;;6.27;85.93
85918;BME280;76456;49.310;8.632;2024-02-26T07:59:18;98801.91;;;6.41;86.46
85918;BME280;76456;49.310;8.632;2024-02-26T08:01:43;98788.75;;;6.35;85.35
85918;BME280;76456;49.310;8.632;2024-02-26T08:04:09;98793.81;;;6.46;85.49
85918;BME280;76456;49.310;8.632;2024-02-26T08:06:34;98804.97;;;6.56;85.66
85918;BME280;76456;49.310;8.632;2024-02-26T08:09:00;98796.47;;;6.55;85.23
85918;BME280;76456;49.310;8.632;2024-02-26T08:11:25;98807.09;;;6.72;84.35
85918;BME280;76456;49.310;8.632;2024-02-26T08:13:50;98812.72;;;6.77;84.87
85918;BME280;76456;49.310;8.632;2024-02-26T08:16:16;98803.31;;;6.87;84.75
85918;BME280;76456;49.310;8.632;2024-02-26T08:18:41;98810.91;;;6.88;84.38
85918;BME280;76456;49.310;8.632;2024-02-26T08:21:06;98825.84;;;7.04;84.07
85918;BME280;76456;49.310;8.632;2024-02-26T08:23:33;98833.19;;;7.09;83.29
85918;BME280;76456;49.310;8.632;2024-02-26T08:25:58;98831.03;;;7.14;82.96
85918;BME280;76456;49.310;8.632;2024-02-26T08:28:24;98826.91;;;7.22;83.10
85918;BME280;76456;49.310;8.632;2024-02-26T08:30:49;98817.59;;;7.21;82.61
85918;BME280;76456;49.310;8.632;2024-02-26T08:33:15;98804.31;;;7.16;82.38
85918;BME280;76456;49.310;8.632;2024-02-26T08:35:40;98806.50;;;7.21;83.15
85918;BME280;76456;49.310;8.632;2024-02-26T08:38:06;98820.50;;;7.37;82.48
85918;BME280;76456;49.310;8.632;2024-02-26T08:40:31;98817.94;;;7.37;82.52
85918;BME280;76456;49.310;8.632;2024-02-26T08:42:56;98814.31;;;7.40;82.24
85918;BME280;76456;49.310;8.632;2024-02-26T08:45:22;98818.66;;;7.49;82.19
85918;BME280;76456;49.310;8.632;2024-02-26T08:47:48;98824.22;;;7.54;81.76
85918;BME280;76456;49.310;8.632;2024-02-26T08:50:14;98820.31;;;7.50;81.65
85918;BME280;76456;49.310;8.632;2024-02-26T08:52:39;98824.28;;;7.64;81.75
85918;BME280;76456;49.310;8.632;2024-02-26T08:55:06;98832.16;;;7.72;80.64
85918;BME280;76456;49.310;8.632;2024-02-26T08:57:34;98843.31;;;7.82;80.71
85918;BME280;76456;49.310;8.632;2024-02-26T09:00:00;98843.72;;;7.87;79.49
85918;BME280;76456;49.310;8.632;2024-02-26T09:02:26;98847.13;;;7.97;79.27
85918;BME280;76456;49.310;8.632;2024-02-26T09:04:51;98836.59;;;8.00;79.35
85918;BME280;76456;49.310;8.632;2024-02-26T09:07:19;98826.25;;;7.81;78.55
85918;BME280;76456;49.310;8.632;2024-02-26T09:09:44;98833.84;;;7.82;78.61
85918;BME280;76456;49.310;8.632;2024-02-26T09:12:10;98852.50;;;7.85;79.35
85918;BME280;76456;49.310;8.632;2024-02-26T09:14:35;98849.00;;;7.95;79.53
85918;BME280;76456;49.310;8.632;2024-02-26T09:17:01;98843.09;;;8.04;80.22
85918;BME280;76456;49.310;8.632;2024-02-26T09:19:26;98847.31;;;8.15;78.76
85918;BME280;76456;49.310;8.632;2024-02-26T09:21:53;98847.31;;;8.15;78.51
85918;BME280;76456;49.310;8.632;2024-02-26T09:24:22;98838.22;;;8.01;78.45
85918;BME280;76456;49.310;8.632;2024-02-26T09:26:47;98851.50;;;8.06;78.71
85918;BME280;76456;49.310;8.632;2024-02-26T09:29:13;98863.13;;;8.01;78.41
85918;BME280;76456;49.310;8.632;2024-02-26T09:31:38;98856.91;;;8.03;79.08
85918;BME280;76456;49.310;8.632;2024-02-26T09:34:06;98862.97;;;8.02;79.03
85918;BME280;76456;49.310;8.632;2024-02-26T09:36:31;98844.75;;;8.05;79.31
85918;BME280;76456;49.310;8.632;2024-02-26T09:38:56;98843.09;;;8.04;78.19
85918;BME280;76456;49.310;8.632;2024-02-26T09:41:22;98860.28;;;8.04;79.11
85918;BME280;76456;49.310;8.632;2024-02-26T09:43:48;98869.41;;;8.17;77.76
85918;BME280;76456;49.310;8.632;2024-02-26T09:46:15;98871.56;;;8.12;77.13
85918;BME280;76456;49.310;8.632;2024-02-26T09:48:44;98879.97;;;8.24;77.31
85918;BME280;76456;49.310;8.632;2024-02-26T09:51:11;98874.25;;;8.20;76.92
85918;BME280;76456;49.310;8.632;2024-02-26T09:53:37;98866.16;;;8.25;76.94
85918;BME280;76456;49.310;8.632;2024-02-26T09:56:06;98860.75;;;8.18;77.02
85918;BME280;76456;49.310;8.632;2024-02-26T09:58:32;98850.47;;;8.28;76.64
85918;BME280;76456;49.310;8.632;2024-02-26T10:01:00;98862.88;;;8.63;76.37
85918;BME280;76456;49.310;8.632;2024-02-26T10:03:34;98849.31;;;8.61;75.34
85918;BME280;76456;49.310;8.632;2024-02-26T10:06:03;98861.41;;;8.99;74.96
85918;BME280;76456;49.310;8.632;2024-02-26T10:08:31;98867.22;;;9.11;74.29
85918;BME280;76456;49.310;8.632;2024-02-26T10:10:56;98850.28;;;9.18;72.88
85918;BME280;76456;49.310;8.632;2024-02-26T10:13:22;98877.13;;;9.06;73.95
85918;BME280;76456;49.310;8.632;2024-02-26T10:15:48;98861.91;;;9.22;72.69
85918;BME280;76456;49.310;8.632;2024-02-26T10:18:13;98872.19;;;9.41;73.04
85918;BME280;76456;49.310;8.632;2024-02-26T10:20:39;98864.59;;;9.39;71.69
85918;BME280;76456;49.310;8.632;2024-02-26T10:23:04;98861.09;;;9.21;71.68
85918;BME280;76456;49.310;8.632;2024-02-26T10:25:30;98846.16;;;9.34;71.30
85918;BME280;76456;49.310;8.632;2024-02-26T10:28:00;98881.13;;;9.93;70.74
85918;BME280;76456;49.310;8.632;2024-02-26T10:30:28;98865.59;;;10.03;69.81
85918;BME280;76456;49.310;8.632;2024-02-26T10:32:56;98878.47;;;9.75;69.84
85918;BME280;76456;49.310;8.632;2024-02-26T10:35:21;98882.31;;;9.99;69.48
85918;BME280;76456;49.310;8.632;2024-02-26T10:37:49;98879.84;;;10.07;69.50
85918;BME280;76456;49.310;8.632;2024-02-26T10:40:15;98892.75;;;10.34;69.12
85918;BME280;76456;49.310;8.632;2024-02-26T10:42:41;98885.78;;;10.17;69.39
85918;BME280;76456;49.310;8.632;2024-02-26T10:45:08;98878.44;;;10.22;68.23
85918;BME280;76456;49.310;8.632;2024-02-26T10:47:37;98856.47;;;10.08;68.74
85918;BME280;76456;49.310;8.632;2024-02-26T10:50:04;98861.69;;;10.26;68.91
85918;BME280;76456;49.310;8.632;2024-02-26T10:52:32;98869.19;;;10.47;68.25
85918;BME280;76456;49.310;8.632;2024-02-26T10:55:02;98885.56;;;10.55;68.41
85918;BME280;76456;49.310;8.632;2024-02-26T10:57:36;98881.38;;;10.90;67.93
85918;BME280;76456;49.310;8.632;2024-02-26T11:00:04;98900.13;;;11.09;66.46
85918;BME280;76456;49.310;8.632;2024-02-26T11:02:32;98898.13;;;11.03;66.46
85918;BME280;76456;49.310;8.632;2024-02-26T11:05:01;98888.09;;;11.44;65.32
85918;BME280;76456;49.310;8.632;2024-02-26T11:07:27;98908.19;;;12.02;63.93
85918;BME280;76456;49.310;8.632;2024-02-26T11:09:54;98912.38;;;11.95;63.09
85918;BME280;76456;49.310;8.632;2024-02-26T11:12:21;98909.69;;;11.61;63.14
85918;BME280;76456;49.310;8.632;2024-02-26T11:14:48;98927.19;;;11.41;64.23
85918;BME280;76456;49.310;8.632;2024-02-26T11:17:17;98904.56;;;10.99;65.96
85918;BME280;76456;49.310;8.632;2024-02-26T11:19:44;98908.19;;;10.89;65.51
85918;BME280;76456;49.310;8.632;2024-02-26T11:22:11;98899.38;;;11.17;65.16
85918;BME280;76456;49.310;8.632;2024-02-26T11:24:36;98888.97;;;11.09;64.99
85918;BME280;76456;49.310;8.632;2024-02-26T11:27:07;98912.59;;;11.75;65.04
85918;BME280;76456;49.310;8.632;2024-02-26T11:29:38;98901.78;;;11.80;64.80
85918;BME280;76456;49.310;8.632;2024-02-26T11:32:05;98892.13;;;13.63;59.81
85918;BME280;76456;49.310;8.632;2024-02-26T11:34:31;98896.66;;;12.72;61.00
85918;BME280;76456;49.310;8.632;2024-02-26T11:36:56;98910.22;;;12.16;61.95
85918;BME280;76456;49.310;8.632;2024-02-26T11:39:22;98905.59;;;11.94;62.32
85918;BME280;76456;49.310;8.632;2024-02-26T11:41:50;98905.13;;;11.55;63.42
85918;BME280;76456;49.310;8.632;2024-02-26T11:44:28;98910.50;;;11.61;63.90
85918;BME280;76456;49.310;8.632;2024-02-26T11:46:54;98908.84;;;11.52;62.85
85918;BME280;76456;49.310;8.632;2024-02-26T11:51:57;98901.06;;;11.96;62.48
85918;BME280;76456;49.310;8.632;2024-02-26T11:57:03;98884.06;;;13.01;58.43
85918;BME280;76456;49.310;8.632;2024-02-26T11:59:38;98896.97;;;12.77;59.07
85918;BME280;76456;49.310;8.632;2024-02-26T12:02:04;98888.19;;;12.54;59.36
85918;BME280;76456;49.310;8.632;2024-02-26T12:04:30;98885.25;;;12.57;59.63
85918;BME280;76456;49.310;8.632;2024-02-26T12:06:56;98898.13;;;12.83;59.82
85918;BME280;76456;49.310;8.632;2024-02-26T12:09:41;98911.19;;;12.65;58.83
85918;BME280;76456;49.310;8.632;2024-02-26T12:12:08;98900.50;;;12.60;59.28
85918;BME280;76456;49.310;8.632;2024-02-26T12:14:55;98909.88;;;12.61;59.68
85918;BME280;76456;49.310;8.632;2024-02-26T12:17:22;98918.19;;;12.81;59.45
85918;BME280;76456;49.310;8.632;2024-02-26T12:19:48;98916.25;;;12.99;58.49
85918;BME280;76456;49.310;8.632;2024-02-26T12:22:14;98902.56;;;13.31;57.16
85918;BME280;76456;49.310;8.632;2024-02-26T12:24:40;98884.44;;;13.94;55.28
85918;BME280;76456;49.310;8.632;2024-02-26T12:27:06;98913.81;;;14.33;53.24
85918;BME280;76456;49.310;8.632;2024-02-26T12:29:31;98929.09;;;14.20;53.41
85918;BME280;76456;49.310;8.632;2024-02-26T12:31:57;98931.31;;;13.92;55.43
85918;BME280;76456;49.310;8.632;2024-02-26T12:34:22;98912.19;;;14.32;53.68
85918;BME280;76456;49.310;8.632;2024-02-26T12:36:48;98913.97;;;15.39;51.01
85918;BME280;76456;49.310;8.632;2024-02-26T12:39:14;98927.97;;;15.76;49.63
85918;BME280;76456;49.310;8.632;2024-02-26T12:41:40;98922.09;;;14.99;52.05
85918;BME280;76456;49.310;8.632;2024-02-26T12:44:07;98908.69;;;15.10;50.64
85918;BME280;76456;49.310;8.632;2024-02-26T12:46:32;98910.66;;;15.83;48.99
85918;BME280;76456;49.310;8.632;2024-02-26T12:48:58;98900.50;;;17.53;44.80
85918;BME280;76456;49.310;8.632;2024-02-26T12:51:25;98913.66;;;15.57;48.84
85918;BME280;76456;49.310;8.632;2024-02-26T12:53:51;98923.34;;;14.49;51.97
85918;BME280;76456;49.310;8.632;2024-02-26T12:56:18;98932.59;;;14.52;52.42
85918;BME280;76456;49.310;8.632;2024-02-26T12:58:44;98934.81;;;16.06;48.79
85918;BME280;76456;49.310;8.632;2024-02-26T13:01:19;98935.47;;;15.56;47.87
85918;BME280;76456;49.310;8.632;2024-02-26T13:03:45;98922.09;;;17.19;45.67
85918;BME280;76456;49.310;8.632;2024-02-26T13:06:11;98928.50;;;17.93;43.57
85918;BME280;76456;49.310;8.632;2024-02-26T13:08:37;98920.44;;;17.11;44.56